Time;durP1;ratioP1;P1;durP2;ratioP2;P2;SDS_P1;SDS_P2;PMS_P1;PMS_P2;Temp;Humidity;BMP_temperature;BMP_pressure;BME280_temperature;BME280_humidity;BME280_pressure;Samples;Min_cycle;Max_cycle;Signal;HPM_P1;HPM_P2
2022/06/02 00:01:52;;;;;;;;;;;;;;;19.12;51.31;99546.63;4341354;32;33536;-85
2022/06/02 00:04:24;;;;;;;;;;;;;;;18.98;51.62;99536.78;4355258;32;32931;-84
2022/06/02 00:06:55;;;;;;;;;;;;;;;19.01;51.44;99541.06;4359411;32;33188;-85
2022/06/02 00:09:33;;;;;;;;;;;;;;;19.09;51.54;99541.53;4355334;32;32269;-85
2022/06/02 00:12:03;;;;;;;;;;;;;;;19.06;51.46;99549.56;4362210;32;35069;-84
2022/06/02 00:14:34;;;;;;;;;;;;;;;18.89;51.96;99542.50;4356474;32;34471;-84
2022/06/02 00:17:03;;;;;;;;;;;;;;;18.97;51.81;99540.38;4356273;32;33524;-83
2022/06/02 00:19:35;;;;;;;;;;;;;;;18.91;51.99;99534.56;4356600;32;33930;-84
2022/06/02 00:22:05;;;;;;;;;;;;;;;18.86;51.98;99532.16;4356208;32;34389;-84
2022/06/02 00:24:36;;;;;;;;;;;;;;;18.71;52.28;99533.75;4361258;32;33767;-85
2022/06/02 00:27:10;;;;;;;;;;;;;;;18.88;51.71;99526.84;4361728;32;33648;-84
2022/06/02 00:29:39;;;;;;;;;;;;;;;18.85;51.82;99534.88;4346066;32;33815;-84
2022/06/02 00:32:09;;;;;;;;;;;;;;;18.87;51.53;99540.88;4341470;33;34254;-84
2022/06/02 00:34:41;;;;;;;;;;;;;;;18.92;51.24;99534.50;4353510;32;34081;-85
2022/06/02 00:37:16;;;;;;;;;;;;;;;18.80;51.52;99524.59;4356293;32;33457;-84
2022/06/02 00:39:47;;;;;;;;;;;;;;;18.78;51.78;99525.59;4361886;32;33273;-84
2022/06/02 00:42:25;;;;;;;;;;;;;;;18.85;51.52;99525.22;4356203;32;34107;-84
2022/06/02 00:44:54;;;;;;;;;;;;;;;18.82;51.99;99524.50;4358779;32;34732;-85
2022/06/02 00:47:44;;;;;;;;;;;;;;;18.91;51.51;99524.88;4357107;32;32016;-83
2022/06/02 00:50:14;;;;;;;;;;;;;;;19.05;51.01;99521.56;4355387;32;33968;-85
2022/06/02 00:52:46;;;;;;;;;;;;;;;18.95;51.28;99522.97;4357739;32;34339;-85
2022/06/02 00:58:09;;;;;;;;;;;;;;;19.13;49.62;99515.91;4359844;32;33294;-84
2022/06/02 01:00:39;;;;;;;;;;;;;;;18.98;50.77;99517.56;4343258;33;33552;-84
2022/06/02 01:03:09;;;;;;;;;;;;;;;19.02;49.85;99513.00;4343128;33;33456;-84
2022/06/02 01:05:40;;;;;;;;;;;;;;;19.13;49.90;99522.03;4343180;33;34716;-84
2022/06/02 01:08:12;;;;;;;;;;;;;;;19.15;49.86;99525.44;4352265;32;33011;-84
2022/06/02 01:10:49;;;;;;;;;;;;;;;19.29;49.60;99508.09;4358634;32;33990;-84
2022/06/02 01:13:25;;;;;;;;;;;;;;;19.28;49.15;99504.63;4363399;32;33949;-84
2022/06/02 01:15:57;;;;;;;;;;;;;;;19.43;49.23;99512.66;4358093;32;34024;-84
2022/06/02 01:18:27;;;;;;;;;;;;;;;19.54;48.99;99510.28;4358019;32;34110;-83
2022/06/02 01:20:59;;;;;;;;;;;;;;;19.48;49.22;99516.72;4357583;32;33853;-84
2022/06/02 01:23:48;;;;;;;;;;;;;;;19.47;49.29;99516.78;4358050;32;34260;-84
2022/06/02 01:26:30;;;;;;;;;;;;;;;19.65;49.39;99510.56;4344004;32;35035;-88
2022/06/02 01:29:00;;;;;;;;;;;;;;;19.56;49.35;99504.00;4339918;33;34095;-84
2022/06/02 01:31:37;;;;;;;;;;;;;;;19.65;49.15;99496.56;4334872;33;32505;-85
2022/06/02 01:34:08;;;;;;;;;;;;;;;19.54;49.31;99491.88;4329584;33;34338;-84
2022/06/02 01:36:38;;;;;;;;;;;;;;;19.76;49.61;99488.97;4328521;33;33205;-85
2022/06/02 01:39:13;;;;;;;;;;;;;;;19.87;48.92;99483.97;4328090;33;33362;-84
2022/06/02 01:41:44;;;;;;;;;;;;;;;19.82;49.44;99483.37;4329820;32;33992;-85
2022/06/02 01:44:14;;;;;;;;;;;;;;;19.72;49.40;99488.28;4333632;33;34254;-85
2022/06/02 01:46:45;;;;;;;;;;;;;;;20.07;48.87;99490.75;4328315;33;34257;-85
2022/06/02 01:49:18;;;;;;;;;;;;;;;20.04;48.44;99490.94;4328163;33;33833;-84
2022/06/02 01:51:50;;;;;;;;;;;;;;;19.88;48.71;99496.19;4327977;33;33784;-85
2022/06/02 01:54:24;;;;;;;;;;;;;;;19.83;48.74;99488.53;4327801;33;33846;-84
2022/06/02 01:56:56;;;;;;;;;;;;;;;19.59;49.60;99489.84;4332606;33;34529;-85
2022/06/02 01:59:33;;;;;;;;;;;;;;;19.68;49.50;99480.63;4347644;32;33468;-84
2022/06/02 02:02:04;;;;;;;;;;;;;;;19.79;49.01;99480.91;4326361;33;34421;-84
2022/06/02 02:04:50;;;;;;;;;;;;;;;19.80;49.02;99479.97;4327715;33;33351;-84
2022/06/02 02:07:20;;;;;;;;;;;;;;;19.65;49.91;99484.25;4326687;33;34070;-83
2022/06/02 02:09:53;;;;;;;;;;;;;;;19.30;50.53;99486.97;4327800;33;33767;-84
2022/06/02 02:12:23;;;;;;;;;;;;;;;19.57;49.78;99482.03;4328035;33;34958;-84
2022/06/02 02:14:57;;;;;;;;;;;;;;;19.65;49.74;99483.41;4334792;32;34358;-84
2022/06/02 02:17:45;;;;;;;;;;;;;;;19.79;49.29;99480.91;4343244;33;34298;-84
2022/06/02 02:20:17;;;;;;;;;;;;;;;19.80;49.31;99483.44;4341299;33;32514;-84
2022/06/02 02:22:47;;;;;;;;;;;;;;;19.92;49.17;99488.97;4342959;33;35114;-85
2022/06/02 02:25:18;;;;;;;;;;;;;;;19.87;49.19;99494.50;4339688;32;32674;-85
2022/06/02 02:28:03;;;;;;;;;;;;;;;19.80;49.45;99506.28;4357269;32;33915;-85
2022/06/02 02:30:36;;;;;;;;;;;;;;;19.89;49.85;99515.50;4342659;33;33349;-85
2022/06/02 02:33:08;;;;;;;;;;;;;;;19.70;51.03;99539.31;4356823;32;33904;-85
2022/06/02 02:35:39;;;;;;;;;;;;;;;19.67;51.00;99544.69;4357211;32;34271;-85
2022/06/02 02:38:09;;;;;;;;;;;;;;;19.02;53.02;99560.31;4355952;32;33208;-85
2022/06/02 02:40:40;;;;;;;;;;;;;;;18.50;55.05;99558.44;4357136;32;33132;-84
2022/06/02 02:43:13;;;;;;;;;;;;;;;18.63;54.69;99577.06;4342699;32;33151;-83
2022/06/02 02:45:46;;;;;;;;;;;;;;;18.58;55.59;99572.06;4346523;33;34979;-85
2022/06/02 02:48:19;;;;;;;;;;;;;;;18.54;55.73;99575.75;4347961;33;34122;-83
2022/06/02 02:50:51;;;;;;;;;;;;;;;18.67;56.52;99589.16;4355510;32;33442;-83
2022/06/02 02:53:20;;;;;;;;;;;;;;;18.84;56.90;99618.13;4357576;32;34201;-83
2022/06/02 02:55:53;;;;;;;;;;;;;;;18.87;56.58;99635.50;4357039;32;34292;-82
2022/06/02 02:58:24;;;;;;;;;;;;;;;18.81;57.02;99633.19;4357268;32;34144;-84
2022/06/02 03:00:54;;;;;;;;;;;;;;;18.32;59.20;99634.53;4361615;32;32407;-83
2022/06/02 03:03:25;;;;;;;;;;;;;;;18.34;60.19;99640.59;4357191;32;33530;-82
2022/06/02 03:06:02;;;;;;;;;;;;;;;18.37;61.10;99646.62;4356547;32;34878;-83
2022/06/02 03:08:34;;;;;;;;;;;;;;;18.34;61.78;99642.37;4357569;32;33635;-83
2022/06/02 03:11:06;;;;;;;;;;;;;;;18.37;61.78;99647.47;4356916;32;33938;-82
2022/06/02 03:13:36;;;;;;;;;;;;;;;18.22;63.14;99656.91;4350398;32;34740;-81
2022/06/02 03:16:06;;;;;;;;;;;;;;;18.09;63.76;99659.19;4348345;32;33787;-81
2022/06/02 03:18:51;;;;;;;;;;;;;;;18.06;64.60;99655.88;4353324;32;34260;-82
2022/06/02 03:21:20;;;;;;;;;;;;;;;17.56;66.78;99656.25;4357123;32;33462;-82
2022/06/02 03:24:11;;;;;;;;;;;;;;;17.56;66.95;99656.25;4356957;32;34860;-83
2022/06/02 03:26:45;;;;;;;;;;;;;;;17.48;68.50;99653.97;4356874;32;34428;-83
2022/06/02 03:29:15;;;;;;;;;;;;;;;17.49;69.11;99661.78;4349353;32;34780;-83
2022/06/02 03:31:46;;;;;;;;;;;;;;;17.82;68.37;99679.66;4346394;33;31660;-83
2022/06/02 03:34:17;;;;;;;;;;;;;;;17.88;68.90;99676.78;4346774;32;33365;-82
2022/06/02 03:36:54;;;;;;;;;;;;;;;17.93;68.81;99668.69;4356716;32;33769;-82
2022/06/02 03:39:23;;;;;;;;;;;;;;;18.07;68.55;99657.56;4356850;32;33684;-83
2022/06/02 03:41:56;;;;;;;;;;;;;;;18.05;67.91;99647.16;4355533;32;32737;-83
2022/06/02 03:44:28;;;;;;;;;;;;;;;18.13;67.65;99647.66;4356947;32;33944;-83
2022/06/02 03:47:01;;;;;;;;;;;;;;;18.16;68.51;99636.16;4361846;32;34034;-84
2022/06/02 03:49:35;;;;;;;;;;;;;;;18.25;68.64;99627.03;4359648;32;34713;-84
2022/06/02 03:52:07;;;;;;;;;;;;;;;18.32;68.91;99623.19;4359364;32;34055;-84
2022/06/02 03:55:06;;;;;;;;;;;;;;;18.34;69.85;99609.06;4356805;32;33561;-83
2022/06/02 03:57:40;;;;;;;;;;;;;;;18.42;70.08;99586.84;4324655;33;35080;-84
2022/06/02 04:00:13;;;;;;;;;;;;;;;18.53;70.12;99582.78;4312484;33;34329;-84
2022/06/02 04:02:44;;;;;;;;;;;;;;;18.48;70.30;99583.91;4323315;33;33400;-84
2022/06/02 04:05:19;;;;;;;;;;;;;;;18.53;69.79;99574.03;4328713;33;32796;-84
2022/06/02 04:07:50;;;;;;;;;;;;;;;18.62;69.20;99588.50;4323470;33;33961;-85
2022/06/02 04:10:19;;;;;;;;;;;;;;;18.62;68.96;99588.50;4311570;33;33891;-84
2022/06/02 04:15:42;;;;;;;;;;;;;;;18.89;68.00;99610.84;4310294;33;33976;-84
2022/06/02 04:18:13;;;;;;;;;;;;;;;18.79;68.32;99611.38;4322163;33;33821;-83
2022/06/02 04:20:49;;;;;;;;;;;;;;;18.71;68.52;99609.94;4328657;33;34343;-85
2022/06/02 04:23:42;;;;;;;;;;;;;;;18.83;68.18;99619.06;4328645;33;33233;-84
2022/06/02 04:26:16;;;;;;;;;;;;;;;18.98;67.91;99622.72;4301430;33;32518;-84
2022/06/02 04:28:46;;;;;;;;;;;;;;;19.03;67.99;99625.97;4312813;33;34502;-84
2022/06/02 04:31:19;;;;;;;;;;;;;;;19.01;68.01;99624.34;4317224;32;32667;-84
2022/06/02 04:33:48;;;;;;;;;;;;;;;18.98;68.25;99620.09;4353909;32;33417;-84
2022/06/02 04:36:21;;;;;;;;;;;;;;;18.93;68.58;99615.03;4354624;32;34759;-85
2022/06/02 04:38:52;;;;;;;;;;;;;;;18.86;69.78;99620.69;4359980;32;35088;-84
2022/06/02 04:41:22;;;;;;;;;;;;;;;18.99;69.49;99624.41;4353814;32;33616;-85
2022/06/02 04:43:53;;;;;;;;;;;;;;;19.09;69.88;99627.47;4354516;32;32772;-86
2022/06/02 04:46:25;;;;;;;;;;;;;;;19.27;68.36;99623.06;4354413;32;34610;-85
2022/06/02 04:48:56;;;;;;;;;;;;;;;19.58;66.73;99633.72;4348638;32;35357;-85
2022/06/02 04:51:35;;;;;;;;;;;;;;;19.50;67.61;99628.00;4340519;32;34239;-85
2022/06/02 04:54:06;;;;;;;;;;;;;;;19.35;68.52;99636.66;4347135;32;34195;-86
2022/06/02 04:56:35;;;;;;;;;;;;;;;19.62;67.70;99629.16;4354634;32;34563;-86
2022/06/02 04:59:10;;;;;;;;;;;;;;;19.50;67.49;99630.63;4350761;32;34253;-84
2022/06/02 05:01:42;;;;;;;;;;;;;;;19.57;67.67;99624.12;4352425;32;34064;-83
2022/06/02 05:04:13;;;;;;;;;;;;;;;19.60;67.84;99621.34;4350233;32;33886;-85
2022/06/02 05:06:44;;;;;;;;;;;;;;;19.70;68.16;99628.78;4357633;32;33889;-85
2022/06/02 05:09:14;;;;;;;;;;;;;;;19.90;67.81;99630.38;4352415;32;36045;-84
2022/06/02 05:11:46;;;;;;;;;;;;;;;19.87;67.69;99641.94;4351951;32;35563;-84
2022/06/02 05:14:35;;;;;;;;;;;;;;;20.14;65.80;99649.28;4345982;32;33463;-85
2022/06/02 05:17:09;;;;;;;;;;;;;;;20.09;67.07;99646.06;4341912;32;33562;-84
2022/06/02 05:19:47;;;;;;;;;;;;;;;20.03;66.49;99647.25;4350080;32;33859;-85
2022/06/02 05:22:22;;;;;;;;;;;;;;;20.22;65.72;99644.47;4351533;32;34141;-84
2022/06/02 05:24:55;;;;;;;;;;;;;;;20.12;65.81;99653.78;4345044;32;34261;-84
2022/06/02 05:27:28;;;;;;;;;;;;;;;20.16;65.79;99650.91;4339466;33;34163;-84
2022/06/02 05:30:00;;;;;;;;;;;;;;;20.38;64.72;99661.16;4349149;32;34118;-84
2022/06/02 05:32:35;;;;;;;;;;;;;;;20.29;64.88;99668.69;4351285;32;33943;-85
2022/06/02 05:35:08;;;;;;;;;;;;;;;20.09;65.53;99673.25;4357469;32;33258;-84
2022/06/02 05:38:00;;;;;;;;;;;;;;;19.94;65.21;99667.00;4354107;32;34681;-84
2022/06/02 05:40:31;;;;;;;;;;;;;;;20.10;64.68;99668.81;4360368;32;33929;-85
2022/06/02 05:43:07;;;;;;;;;;;;;;;19.87;65.72;99677.94;4359474;32;32196;-86
2022/06/02 05:45:43;;;;;;;;;;;;;;;19.74;66.25;99680.31;4356265;32;33294;-85
2022/06/02 05:48:18;;;;;;;;;;;;;;;19.68;66.85;99680.66;4354841;32;34956;-85
2022/06/02 05:50:48;;;;;;;;;;;;;;;19.83;65.98;99677.22;4349537;32;34280;-85
2022/06/02 05:53:22;;;;;;;;;;;;;;;19.62;67.79;99679.16;4356620;32;34462;-86
2022/06/02 05:55:58;;;;;;;;;;;;;;;19.95;67.69;99675.75;4361269;32;33757;-85
2022/06/02 05:58:35;;;;;;;;;;;;;;;20.34;66.32;99685.94;4362890;32;33787;-84
2022/06/02 06:01:06;;;;;;;;;;;;;;;20.43;64.97;99677.56;4357590;32;33726;-85
2022/06/02 06:03:54;;;;;;;;;;;;;;;20.25;64.19;99689.94;4357573;32;34588;-85
2022/06/02 06:06:25;;;;;;;;;;;;;;;19.99;65.71;99693.94;4342921;33;33366;-85
2022/06/02 06:09:01;;;;;;;;;;;;;;;20.14;65.29;99700.19;4342872;33;34044;-84
2022/06/02 06:11:33;;;;;;;;;;;;;;;20.25;66.06;99687.31;4344561;32;34301;-85
2022/06/02 06:14:10;;;;;;;;;;;;;;;20.22;65.50;99689.25;4362852;32;33804;-84
2022/06/02 06:16:39;;;;;;;;;;;;;;;20.58;66.06;99691.72;4357745;32;33614;-85
2022/06/02 06:19:17;;;;;;;;;;;;;;;21.08;61.19;99687.22;4347939;32;34307;-84
2022/06/02 06:21:49;;;;;;;;;;;;;;;21.22;62.10;99682.00;4353746;32;34990;-84
2022/06/02 06:24:26;;;;;;;;;;;;;;;21.52;59.60;99683.81;4342310;33;34242;-84
2022/06/02 06:26:57;;;;;;;;;;;;;;;21.68;58.17;99687.28;4353308;32;33396;-84
2022/06/02 06:29:32;;;;;;;;;;;;;;;21.61;58.39;99691.22;4361885;32;33372;-85
2022/06/02 06:32:03;;;;;;;;;;;;;;;21.67;57.24;99704.06;4356951;32;35781;-85
2022/06/02 06:34:35;;;;;;;;;;;;;;;21.78;57.43;99699.94;4354158;32;33683;-85
2022/06/02 06:37:17;;;;;;;;;;;;;;;21.97;58.71;99711.09;4356450;32;33865;-84
2022/06/02 06:39:50;;;;;;;;;;;;;;;21.77;57.54;99708.78;4357679;32;33614;-84
2022/06/02 06:42:30;;;;;;;;;;;;;;;22.22;56.71;99720.22;4347825;32;34264;-85
2022/06/02 06:45:05;;;;;;;;;;;;;;;22.16;57.15;99716.97;4333161;32;872261;-86
2022/06/02 06:47:37;;;;;;;;;;;;;;;22.22;58.13;99726.34;4362029;32;33302;-84
2022/06/02 06:50:08;;;;;;;;;;;;;;;22.37;55.49;99735.13;4355681;32;34256;-86
2022/06/02 06:52:52;;;;;;;;;;;;;;;22.38;55.49;99736.84;4356567;32;34112;-85
2022/06/02 06:55:32;;;;;;;;;;;;;;;22.48;55.56;99724.75;4353209;32;33864;-85
2022/06/02 06:58:03;;;;;;;;;;;;;;;22.64;55.74;99729.06;4358792;32;33054;-86
2022/06/02 07:00:35;;;;;;;;;;;;;;;22.90;53.97;99728.28;4354905;32;34906;-86
2022/06/02 07:03:05;;;;;;;;;;;;;;;23.04;51.75;99732.72;4362146;32;35097;-86
2022/06/02 07:05:35;;;;;;;;;;;;;;;23.04;53.48;99731.88;4356707;32;34016;-85
2022/06/02 07:08:07;;;;;;;;;;;;;;;23.35;50.27;99728.09;4356275;32;33383;-86
2022/06/02 07:10:39;;;;;;;;;;;;;;;23.39;49.09;99733.09;4356246;32;33942;-86
2022/06/02 07:13:08;;;;;;;;;;;;;;;23.36;49.32;99732.44;4349786;32;33982;-85
2022/06/02 07:15:44;;;;;;;;;;;;;;;23.42;54.07;99732.88;4357469;32;34234;-85
2022/06/02 07:18:23;;;;;;;;;;;;;;;23.55;54.74;99732.91;4360245;32;33940;-87
2022/06/02 07:20:54;;;;;;;;;;;;;;;23.83;53.08;99731.09;4354584;32;34464;-85
2022/06/02 07:23:28;;;;;;;;;;;;;;;24.20;44.19;99732.06;4356151;32;34247;-87
2022/06/02 07:26:01;;;;;;;;;;;;;;;23.99;45.72;99737.06;4345241;32;34208;-85
2022/06/02 07:28:32;;;;;;;;;;;;;;;24.00;47.56;99733.47;4342227;33;33683;-84
2022/06/02 07:31:04;;;;;;;;;;;;;;;24.19;43.98;99732.22;4340011;33;34390;-85
2022/06/02 07:33:41;;;;;;;;;;;;;;;23.48;46.11;99723.66;4346585;33;34164;-85
2022/06/02 07:36:28;;;;;;;;;;;;;;;23.84;45.89;99730.97;4343729;32;33794;-85
2022/06/02 07:39:11;;;;;;;;;;;;;;;24.19;44.40;99734.84;4346051;32;33031;-84
2022/06/02 07:41:54;;;;;;;;;;;;;;;23.74;46.42;99723.78;4321449;32;34469;-85
2022/06/02 07:44:27;;;;;;;;;;;;;;;23.86;47.59;99725.59;4341149;33;34246;-85
2022/06/02 07:47:03;;;;;;;;;;;;;;;23.96;47.01;99729.31;4340618;33;33715;-85
2022/06/02 07:49:37;;;;;;;;;;;;;;;24.13;46.05;99738.75;4339397;33;33057;-86
2022/06/02 07:52:08;;;;;;;;;;;;;;;23.78;47.30;99751.78;4346117;33;34160;-86
2022/06/02 07:54:39;;;;;;;;;;;;;;;23.83;48.06;99745.19;4340047;33;33763;-85
2022/06/02 07:57:12;;;;;;;;;;;;;;;24.02;44.92;99736.84;4339116;32;34241;-85
2022/06/02 07:59:45;;;;;;;;;;;;;;;24.08;47.57;99735.56;4318719;33;33292;-85
2022/06/02 08:02:27;;;;;;;;;;;;;;;23.78;46.18;99736.72;4341041;33;33679;-87
2022/06/02 08:05:00;;;;;;;;;;;;;;;23.82;47.15;99734.69;4341239;33;34168;-85
2022/06/02 08:07:30;;;;;;;;;;;;;;;23.68;48.79;99740.91;4346421;32;34304;-84
2022/06/02 08:10:04;;;;;;;;;;;;;;;23.74;47.87;99740.50;4331377;33;32023;-84
2022/06/02 08:12:39;;;;;;;;;;;;;;;23.79;49.80;99743.69;4337508;33;34262;-83
2022/06/02 08:15:11;;;;;;;;;;;;;;;23.66;50.72;99745.44;4340976;33;34304;-85
2022/06/02 08:17:42;;;;;;;;;;;;;;;23.59;49.26;99744.16;4340072;33;34242;-86
2022/06/02 08:20:17;;;;;;;;;;;;;;;22.96;51.00;99742.94;4336013;33;33104;-84
2022/06/02 08:22:56;;;;;;;;;;;;;;;23.29;50.69;99754.94;4343836;33;33731;-85
2022/06/02 08:25:25;;;;;;;;;;;;;;;23.67;49.39;99751.59;4337980;32;34969;-85
2022/06/02 08:28:05;;;;;;;;;;;;;;;23.33;48.88;99749.37;4340503;33;34696;-85
2022/06/02 08:30:37;;;;;;;;;;;;;;;23.66;48.25;99734.00;4344313;32;33275;-84
2022/06/02 08:33:10;;;;;;;;;;;;;;;23.89;48.90;99748.38;4339866;32;33665;-85
2022/06/02 08:35:40;;;;;;;;;;;;;;;23.97;47.77;99746.06;4340106;32;35027;-85
2022/06/02 08:38:16;;;;;;;;;;;;;;;24.34;47.29;99752.34;4345901;33;34127;-85
2022/06/02 08:44:02;;;;;;;;;;;;;;;24.30;46.59;99750.84;4331906;33;34565;-85
2022/06/02 08:46:37;;;;;;;;;;;;;;;24.00;49.09;99743.22;4341517;33;34156;-86
2022/06/02 08:49:27;;;;;;;;;;;;;;;24.12;48.54;99745.03;4340394;33;33306;-87
2022/06/02 08:52:17;;;;;;;;;;;;;;;24.59;47.15;99756.81;4340565;33;32959;-86
2022/06/02 08:55:04;;;;;;;;;;;;;;;24.17;47.99;99760.62;4316867;33;34788;-84
2022/06/02 08:58:02;;;;;;;;;;;;;;;24.24;48.39;99760.09;4326949;33;33391;-85
2022/06/02 09:00:48;;;;;;;;;;;;;;;23.92;48.32;99749.03;4338972;33;32451;-84
2022/06/02 09:03:35;;;;;;;;;;;;;;;23.99;48.54;99744.16;4346718;33;33355;-86
2022/06/02 09:06:25;;;;;;;;;;;;;;;24.51;47.59;99753.84;4348352;32;34195;-84
2022/06/02 09:08:58;;;;;;;;;;;;;;;24.69;46.84;99754.34;4342989;33;34460;-84
2022/06/02 09:11:29;;;;;;;;;;;;;;;24.60;46.10;99763.81;4342753;33;34428;-85
2022/06/02 09:14:14;;;;;;;;;;;;;;;24.44;46.66;99766.66;4342896;33;33430;-85
2022/06/02 09:16:51;;;;;;;;;;;;;;;24.72;47.09;99771.84;4342169;33;32519;-84
2022/06/02 09:19:29;;;;;;;;;;;;;;;24.64;46.86;99781.19;4342371;33;35188;-85
2022/06/02 09:22:05;;;;;;;;;;;;;;;24.75;45.92;99774.31;4343299;32;34467;-86
2022/06/02 09:24:34;;;;;;;;;;;;;;;25.00;45.57;99776.03;4350568;32;33274;-84
2022/06/02 09:27:21;;;;;;;;;;;;;;;24.99;45.72;99779.69;4357664;32;34907;-85
2022/06/02 09:29:50;;;;;;;;;;;;;;;24.96;46.22;99774.56;4350802;32;34081;-85
2022/06/02 09:32:37;;;;;;;;;;;;;;;25.02;46.64;99780.28;4352169;32;34071;-86
2022/06/02 09:35:13;;;;;;;;;;;;;;;24.99;46.72;99777.84;4347522;32;33653;-85
2022/06/02 09:38:03;;;;;;;;;;;;;;;24.94;47.06;99782.66;4356912;32;34021;-85
2022/06/02 09:40:47;;;;;;;;;;;;;;;25.39;45.29;99776.78;4351556;32;34209;-86
2022/06/02 09:43:34;;;;;;;;;;;;;;;25.10;45.87;99777.94;4346930;32;33894;-85
2022/06/02 09:46:08;;;;;;;;;;;;;;;25.13;45.65;99788.34;4357120;32;33341;-86
2022/06/02 09:49:02;;;;;;;;;;;;;;;25.10;44.93;99791.22;4362845;32;34132;-87
2022/06/02 09:51:40;;;;;;;;;;;;;;;25.45;44.69;99782.50;4350373;32;34596;-85
2022/06/02 09:54:39;;;;;;;;;;;;;;;25.31;44.50;99780.03;4353359;32;33991;-86
2022/06/02 10:00:00;;;;;;;;;;;;;;;25.36;44.48;99766.41;4341550;32;34101;-87
2022/06/02 10:02:35;;;;;;;;;;;;;;;25.33;44.34;99768.31;4340615;32;33982;-87
2022/06/02 10:05:10;;;;;;;;;;;;;;;25.44;43.88;99767.56;4344345;32;34291;-87
2022/06/02 10:07:43;;;;;;;;;;;;;;;25.71;43.64;99761.97;4358886;32;33620;-85
2022/06/02 10:10:16;;;;;;;;;;;;;;;25.59;43.23;99767.34;4351698;32;33999;-87
2022/06/02 10:12:58;;;;;;;;;;;;;;;25.88;43.76;99767.88;4349243;32;33824;-86
2022/06/02 10:15:48;;;;;;;;;;;;;;;25.82;44.10;99765.63;4341607;32;33683;-86
2022/06/02 10:18:27;;;;;;;;;;;;;;;25.90;44.62;99760.59;4355160;32;32961;-86
2022/06/02 10:21:04;;;;;;;;;;;;;;;26.08;44.05;99761.88;4357271;32;34153;-86
2022/06/02 10:23:48;;;;;;;;;;;;;;;26.04;44.33;99764.87;4351741;32;34357;-87
2022/06/02 10:26:22;;;;;;;;;;;;;;;26.07;43.58;99764.63;4330715;32;33724;-87
2022/06/02 10:29:24;;;;;;;;;;;;;;;26.47;43.95;99764.22;4360609;32;32985;-86
2022/06/02 10:32:19;;;;;;;;;;;;;;;26.63;42.46;99767.41;4354801;32;33733;-86
2022/06/02 10:35:03;;;;;;;;;;;;;;;26.42;42.12;99766.41;4357438;32;34129;-87
2022/06/02 10:37:44;;;;;;;;;;;;;;;26.23;42.74;99770.47;4356667;32;34889;-87
2022/06/02 10:40:14;;;;;;;;;;;;;;;26.46;42.86;99770.50;4357471;32;33108;-89
2022/06/02 10:43:01;;;;;;;;;;;;;;;26.61;41.78;99772.00;4357130;32;33230;-88
2022/06/02 10:45:50;;;;;;;;;;;;;;;26.46;41.98;99768.72;4351528;32;33707;-86
2022/06/02 10:48:37;;;;;;;;;;;;;;;26.08;42.78;99771.66;4356463;32;34322;-87
2022/06/02 10:51:13;;;;;;;;;;;;;;;26.19;43.40;99774.31;4362995;32;33584;-86
2022/06/02 10:53:54;;;;;;;;;;;;;;;26.37;43.42;99769.41;4361906;32;33967;-87
2022/06/02 10:56:37;;;;;;;;;;;;;;;26.33;42.72;99768.78;4359238;32;34154;-87
2022/06/02 10:59:15;;;;;;;;;;;;;;;26.49;42.58;99780.91;4357042;32;34577;-88
2022/06/02 11:02:02;;;;;;;;;;;;;;;26.42;42.50;99774.38;4356524;32;33441;-87
2022/06/02 11:04:40;;;;;;;;;;;;;;;26.74;41.91;99778.03;4350990;32;34129;-86
2022/06/02 11:07:32;;;;;;;;;;;;;;;26.93;41.73;99779.25;4356589;32;33797;-87
2022/06/02 11:10:20;;;;;;;;;;;;;;;27.21;41.58;99780.56;4323301;33;34042;-86
2022/06/02 11:12:54;;;;;;;;;;;;;;;27.15;41.32;99768.53;4330414;33;33341;-87
2022/06/02 11:15:25;;;;;;;;;;;;;;;27.57;40.74;99762.50;4324379;33;34143;-86
2022/06/02 11:17:59;;;;;;;;;;;;;;;27.78;39.36;99763.38;4324247;33;34280;-88
2022/06/02 11:20:47;;;;;;;;;;;;;;;27.69;40.34;99764.19;4324386;33;34812;-88
2022/06/02 11:23:34;;;;;;;;;;;;;;;27.71;40.27;99753.38;4311926;33;32161;-86
2022/06/02 11:26:09;;;;;;;;;;;;;;;27.96;39.53;99773.53;4319852;33;34080;-87
2022/06/02 11:28:53;;;;;;;;;;;;;;;27.37;39.91;99765.00;4324752;33;33921;-86
2022/06/02 11:31:29;;;;;;;;;;;;;;;27.53;40.72;99761.09;4322911;33;33689;-86
2022/06/02 11:34:17;;;;;;;;;;;;;;;27.85;38.94;99764.59;4328357;33;33799;-87
2022/06/02 11:37:02;;;;;;;;;;;;;;;27.83;39.85;99768.38;4325235;33;33969;-87
2022/06/02 11:39:44;;;;;;;;;;;;;;;27.75;38.91;99768.16;4325750;33;34273;-88
2022/06/02 11:42:17;;;;;;;;;;;;;;;27.57;38.95;99784.72;4325260;33;33757;-88
2022/06/02 11:44:47;;;;;;;;;;;;;;;27.69;38.10;99781.97;4325085;33;33820;-87
2022/06/02 11:47:30;;;;;;;;;;;;;;;27.37;38.88;99775.66;4347851;32;34573;-87
2022/06/02 11:50:20;;;;;;;;;;;;;;;28.13;39.13;99775.62;4356812;32;34119;-87
2022/06/02 11:53:07;;;;;;;;;;;;;;;28.22;36.63;99779.31;4362008;32;33952;-87
2022/06/02 11:55:38;;;;;;;;;;;;;;;27.65;36.40;99782.25;4361277;32;32617;-87
2022/06/02 11:58:10;;;;;;;;;;;;;;;27.88;35.87;99782.16;4356698;32;34468;-87
2022/06/02 12:01:13;;;;;;;;;;;;;;;27.94;36.84;99786.16;4356338;32;33909;-87
2022/06/02 12:03:59;;;;;;;;;;;;;;;27.92;36.34;99777.44;4343088;32;34748;-88
2022/06/02 12:06:46;;;;;;;;;;;;;;;27.86;34.88;99774.31;4343316;32;35602;-86
2022/06/02 12:09:25;;;;;;;;;;;;;;;27.79;35.57;99766.94;4354926;32;33707;-86
2022/06/02 12:12:00;;;;;;;;;;;;;;;28.02;34.82;99773.84;4355765;32;34345;-88
2022/06/02 12:14:44;;;;;;;;;;;;;;;28.07;35.33;99779.63;4357308;32;34356;-86
2022/06/02 12:17:18;;;;;;;;;;;;;;;28.09;35.05;99775.00;4359262;32;32902;-87
2022/06/02 12:19:57;;;;;;;;;;;;;;;28.48;35.08;99782.44;4352530;32;33940;-85
2022/06/02 12:22:30;;;;;;;;;;;;;;;28.38;34.79;99782.34;4350384;32;34544;-88
2022/06/02 12:25:08;;;;;;;;;;;;;;;28.19;35.06;99780.41;4346184;32;33435;-87
2022/06/02 12:27:41;;;;;;;;;;;;;;;28.54;33.32;99779.25;4346763;32;32033;-86
2022/06/02 12:30:29;;;;;;;;;;;;;;;28.51;33.22;99776.81;4357852;32;34111;-86
2022/06/02 12:33:00;;;;;;;;;;;;;;;28.85;33.30;99784.53;4344951;32;34764;-87
2022/06/02 12:35:32;;;;;;;;;;;;;;;29.24;32.99;99787.37;4344652;32;34541;-87
2022/06/02 12:38:16;;;;;;;;;;;;;;;29.15;31.48;99791.72;4341841;32;33285;-87
2022/06/02 12:40:51;;;;;;;;;;;;;;;29.12;32.14;99787.50;4351912;32;33823;-86
2022/06/02 12:43:26;;;;;;;;;;;;;;;29.31;29.54;99783.16;4342340;32;34396;-89
2022/06/02 12:45:58;;;;;;;;;;;;;;;29.44;31.09;99780.22;4339781;32;34224;-87
2022/06/02 12:48:34;;;;;;;;;;;;;;;29.65;29.97;99791.66;4345250;32;35857;-89
2022/06/02 12:51:08;;;;;;;;;;;;;;;29.47;29.98;99794.16;4346708;32;36180;-87
2022/06/02 12:53:46;;;;;;;;;;;;;;;29.73;29.42;99782.94;4348583;32;34599;-88
2022/06/02 12:56:34;;;;;;;;;;;;;;;29.74;28.63;99782.81;4346653;32;34671;-86
2022/06/02 12:59:21;;;;;;;;;;;;;;;29.90;29.78;99795.59;4346258;32;32929;-87
2022/06/02 13:01:55;;;;;;;;;;;;;;;30.08;28.41;99798.38;4346847;32;34009;-86
2022/06/02 13:04:43;;;;;;;;;;;;;;;29.74;28.89;99798.84;4348881;32;34966;-87
2022/06/02 13:07:35;;;;;;;;;;;;;;;30.13;28.68;99798.81;4350623;32;34955;-87
2022/06/02 13:10:25;;;;;;;;;;;;;;;30.06;29.62;99794.16;4359420;32;33054;-88
2022/06/02 13:13:12;;;;;;;;;;;;;;;30.09;29.42;99800.09;4368648;32;32847;-90
2022/06/02 13:15:47;;;;;;;;;;;;;;;29.99;28.30;99794.75;4361181;32;34243;-87
2022/06/02 13:18:24;;;;;;;;;;;;;;;30.18;29.41;99793.88;4347697;32;33813;-87
2022/06/02 13:21:08;;;;;;;;;;;;;;;30.07;28.37;99791.34;4358735;32;33272;-89
2022/06/02 13:23:45;;;;;;;;;;;;;;;29.99;29.07;99789.41;4357383;32;35791;-87
2022/06/02 13:26:40;;;;;;;;;;;;;;;30.25;29.29;99788.81;4357488;32;34219;-89
2022/06/02 13:29:29;;;;;;;;;;;;;;;30.56;28.11;99784.06;4320060;33;33777;-88
2022/06/02 13:32:07;;;;;;;;;;;;;;;30.27;28.49;99765.44;4311471;33;34126;-87
2022/06/02 13:35:10;;;;;;;;;;;;;;;30.00;27.58;99768.84;4314416;33;34087;-91
2022/06/02 13:37:57;;;;;;;;;;;;;;;30.19;28.26;99771.47;4287669;33;34145;-87
2022/06/02 13:40:29;;;;;;;;;;;;;;;30.68;28.17;99775.84;4325106;33;34195;-86
2022/06/02 13:43:16;;;;;;;;;;;;;;;31.01;27.91;99782.50;4321607;33;33073;-87
2022/06/02 13:46:09;;;;;;;;;;;;;;;31.46;27.19;99774.47;4306121;33;33078;-89
2022/06/02 13:48:47;;;;;;;;;;;;;;;32.05;26.84;99774.00;4306878;33;34241;-86